createdAt,value
2016-11-08T00:00:16.847Z,69.9
2016-11-08T00:01:26.824Z,69.8
2016-11-08T00:02:36.801Z,69.8
2016-11-08T00:03:46.457Z,69.9
2016-11-08T00:04:56.739Z,69.9
2016-11-08T00:06:06.711Z,69.71
2016-11-08T00:07:16.977Z,69.71
2016-11-08T00:08:27.267Z,69.71
2016-11-08T00:09:36.955Z,69.8
2016-11-08T00:10:47.231Z,69.8
2016-11-08T00:11:57.513Z,69.9
2016-11-08T00:13:07.181Z,69.8
2016-11-08T00:14:17.187Z,69.8
2016-11-08T00:15:26.838Z,69.86
2016-11-08T00:16:36.880Z,69.86
2016-11-08T00:17:46.851Z,69.57
2016-11-08T00:18:56.833Z,69.77
2016-11-08T00:20:06.525Z,69.77
2016-11-08T00:21:16.536Z,69.57
2016-11-08T00:22:26.812Z,69.77
2016-11-08T00:23:36.777Z,69.77
2016-11-08T00:24:46.781Z,69.86
2016-11-08T00:25:56.134Z,69.86
2016-11-08T00:27:06.406Z,69.67
2016-11-08T00:28:16.107Z,69.67
2016-11-08T00:29:26.384Z,69.86
2016-11-08T00:30:36.355Z,69.96
2016-11-08T00:31:46.327Z,69.77
2016-11-08T00:32:56.034Z,70.05
2016-11-08T00:34:06.306Z,70.05
2016-11-08T00:35:15.976Z,70.15
2016-11-08T00:36:26.249Z,70.15
2016-11-08T00:37:36.201Z,70.15
2016-11-08T00:38:45.557Z,69.96
2016-11-08T00:39:55.834Z,69.48
2016-11-08T00:41:06.100Z,69.77
2016-11-08T00:42:16.072Z,69.77
2016-11-08T00:43:26.058Z,69.67
2016-11-08T00:44:36.336Z,69.48
2016-11-08T00:45:45.997Z,69.67
2016-11-08T00:46:55.649Z,69.57
2016-11-08T00:48:05.615Z,69.48
2016-11-08T00:49:15.594Z,69.77
2016-11-08T00:50:25.553Z,69.57
2016-11-08T00:51:35.560Z,69.67
2016-11-08T00:52:45.568Z,69.57
2016-11-08T00:53:55.534Z,69.67
2016-11-08T00:55:05.816Z,69.57
2016-11-08T00:56:15.493Z,69.77
2016-11-08T00:57:25.469Z,70.05
2016-11-08T00:58:35.761Z,70.01
2016-11-08T00:59:46.027Z,70.11
2016-11-08T01:00:55.998Z,70.01
2016-11-08T01:02:05.661Z,70.11
2016-11-08T01:03:15.932Z,69.54
2016-11-08T01:04:25.580Z,69.54
2016-11-08T01:05:35.546Z,69.73
2016-11-08T01:06:45.513Z,69.64
2016-11-08T01:07:55.174Z,70.01
2016-11-08T01:09:05.135Z,69.73
2016-11-08T01:10:15.098Z,69.82
2016-11-08T01:11:25.390Z,69.45
2016-11-08T01:12:35.656Z,69.45
2016-11-08T01:13:45.638Z,69.17
2016-11-08T01:14:55.606Z,69.29
2016-11-08T01:16:05.283Z,69.2
2016-11-08T01:17:15.789Z,69.45
2016-11-08T01:18:25.754Z,69.07
2016-11-08T01:19:36.075Z,69.45
2016-11-08T01:20:46.353Z,69.45
2016-11-08T01:21:55.704Z,69.48
2016-11-08T01:23:05.368Z,69.45
2016-11-08T01:24:15.052Z,69.45
2016-11-08T01:25:24.719Z,68.98
2016-11-08T01:26:34.982Z,69.26
2016-11-08T01:27:44.697Z,68.98
2016-11-08T01:28:54.653Z,69.01
2016-11-08T01:30:04.046Z,69.35
2016-11-08T01:31:14.318Z,69.26
2016-11-08T01:32:24.612Z,69.07
2016-11-08T01:33:34.585Z,69.07
2016-11-08T01:34:44.557Z,69.17
2016-11-08T01:35:54.514Z,69.17
2016-11-08T01:37:04.480Z,69.45
2016-11-08T01:38:14.759Z,69.64
2016-11-08T01:39:25.049Z,69.54
2016-11-08T01:40:35.006Z,69.64
2016-11-08T01:41:45.007Z,69.64
2016-11-08T01:42:54.979Z,69.73
2016-11-08T01:44:05.261Z,70.01
2016-11-08T01:45:15.529Z,69.17
2016-11-08T01:46:25.520Z,69.45
2016-11-08T01:47:35.798Z,69.26
2016-11-08T01:48:45.782Z,69.26
2016-11-08T01:49:55.439Z,69.26
2016-11-08T01:51:05.096Z,69.07
2016-11-08T01:52:15.078Z,69.45
2016-11-08T01:53:24.779Z,69.35
2016-11-08T01:54:35.051Z,69.54
2016-11-08T01:55:44.714Z,69.07
2016-11-08T01:56:54.689Z,69.26
2016-11-08T01:58:04.966Z,69.45
2016-11-08T01:59:15.233Z,69.45
2016-11-08T02:00:24.895Z,69.07
2016-11-08T02:01:35.173Z,69.17
2016-11-08T02:02:45.474Z,69.45
2016-11-08T02:03:55.761Z,69.17
2016-11-08T02:05:06.043Z,69.17
2016-11-08T02:06:16.318Z,69.17
2016-11-08T02:07:26.665Z,69.07
2016-11-08T02:08:36.958Z,68.88
2016-11-08T02:09:47.231Z,68.98
2016-11-08T02:10:56.893Z,68.98
2016-11-08T02:12:07.160Z,69.35
2016-11-08T02:13:17.129Z,69.17
2016-11-08T02:14:27.410Z,69.45
2016-11-08T02:15:37.692Z,69.35
2016-11-08T02:16:47.667Z,69.26
2016-11-08T02:17:57.630Z,69.45
2016-11-08T02:19:07.903Z,69.45
2016-11-08T02:20:17.879Z,69.07
2016-11-08T02:21:27.870Z,69.07
2016-11-08T02:22:37.538Z,68.98
2016-11-08T02:23:47.854Z,69.17
2016-11-08T02:24:57.196Z,68.98
2016-11-08T02:26:07.158Z,69.17
2016-11-08T02:27:17.124Z,69.17
2016-11-08T02:28:27.096Z,69.17
2016-11-08T02:29:37.382Z,69.26
2016-11-08T02:30:47.672Z,68.88
2016-11-08T02:31:57.332Z,69.17
2016-11-08T02:33:07.348Z,69.17
2016-11-08T02:34:17.633Z,69.17
2016-11-08T02:35:27.287Z,69.26
2016-11-08T02:36:36.948Z,69.26
2016-11-08T02:37:47.269Z,69.07
2016-11-08T02:38:57.237Z,69.26
2016-11-08T02:40:07.209Z,69.26
2016-11-08T02:41:16.879Z,69.26
2016-11-08T02:42:27.157Z,69.26
2016-11-08T02:43:37.423Z,68.88
2016-11-08T02:44:47.377Z,69.26
2016-11-08T02:45:57.392Z,69.07
2016-11-08T02:47:07.679Z,69.07
2016-11-08T02:48:17.970Z,69.07
2016-11-08T02:49:27.656Z,69.07
2016-11-08T02:50:37.944Z,69.17
2016-11-08T02:51:47.937Z,69.17
2016-11-08T02:52:58.207Z,69.07
2016-11-08T02:54:08.183Z,69.17
2016-11-08T02:55:18.168Z,69.07
2016-11-08T02:56:28.447Z,69.07
2016-11-08T02:57:38.425Z,69.07
2016-11-08T02:58:48.396Z,69.35
2016-11-08T02:59:58.692Z,69.45
2016-11-08T03:31:57.855Z,68.36
2016-11-08T03:33:07.817Z,68.74
2016-11-08T03:34:18.084Z,69.68
2016-11-08T03:35:28.053Z,70.54
2016-11-08T03:36:38.016Z,71.11
2016-11-08T03:37:47.693Z,71.3
2016-11-08T03:38:57.654Z,71.67
2016-11-08T03:40:07.946Z,72.05
2016-11-08T03:41:17.922Z,71.67
2016-11-08T03:42:27.899Z,72.37
2016-11-08T03:43:38.206Z,71.71
2016-11-08T03:44:48.179Z,71.99
2016-11-08T03:45:58.160Z,72.09
2016-11-08T03:47:08.445Z,72.09
2016-11-08T03:48:18.418Z,71.55
2016-11-08T03:49:28.109Z,71.46
2016-11-08T03:50:38.383Z,71.17
2016-11-08T03:51:48.676Z,71.65
2016-11-08T03:52:58.990Z,71.46
2016-11-08T03:54:08.651Z,71.21
2016-11-08T03:55:18.323Z,71.21
2016-11-08T03:56:28.642Z,71.12
2016-11-08T03:57:38.307Z,70.93
2016-11-08T03:58:47.683Z,70.74
2016-11-08T03:59:57.665Z,70.55
2016-11-08T04:01:07.632Z,70.55
2016-11-08T04:02:17.614Z,70.87
2016-11-08T04:03:27.585Z,70.78
2016-11-08T04:04:37.608Z,70.3
2016-11-08T04:05:47.879Z,70.39
2016-11-08T04:06:57.540Z,70.2
2016-11-08T04:08:07.536Z,70.49
2016-11-08T04:09:17.527Z,69.73
2016-11-08T04:10:27.200Z,69.82
2016-11-08T04:11:37.165Z,69.73
2016-11-08T04:12:47.128Z,69.54
2016-11-08T04:13:57.129Z,69.73
2016-11-08T04:15:06.791Z,69.73
2016-11-08T04:16:16.755Z,69.77
2016-11-08T04:17:26.735Z,69.77
2016-11-08T04:18:37.021Z,69.73
2016-11-08T04:19:47.307Z,70.05
2016-11-08T04:20:57.590Z,70.05
2016-11-08T04:22:07.612Z,70.05
2016-11-08T04:23:17.594Z,70.05
2016-11-08T04:24:27.866Z,70.05
2016-11-08T04:25:37.532Z,70.05
2016-11-08T04:26:47.498Z,70.15
2016-11-08T04:27:57.494Z,70.05
2016-11-08T04:29:07.779Z,70.05
2016-11-08T04:30:17.754Z,70.05
2016-11-08T04:31:27.760Z,70.15
2016-11-08T04:32:37.423Z,70.05
2016-11-08T04:33:47.730Z,69.77
2016-11-08T04:34:58.006Z,69.67
2016-11-08T04:36:08.282Z,69.77
2016-11-08T04:37:18.243Z,69.77
2016-11-08T04:38:28.223Z,70.05
2016-11-08T04:39:38.502Z,69.77
2016-11-08T04:40:48.479Z,69.77
2016-11-08T04:41:58.445Z,69.77
2016-11-08T04:43:08.717Z,69.86
2016-11-08T04:44:18.993Z,69.86
2016-11-08T04:45:28.026Z,69.77
2016-11-08T04:46:38.297Z,69.77
2016-11-08T04:47:48.269Z,69.77
2016-11-08T04:48:57.931Z,69.77
2016-11-08T04:50:07.913Z,69.77
2016-11-08T04:51:18.188Z,69.96
2016-11-08T04:52:28.161Z,69.77
2016-11-08T04:53:38.453Z,69.77
2016-11-08T04:54:48.739Z,69.77
2016-11-08T04:55:58.400Z,69.77
2016-11-08T04:57:08.369Z,69.77
2016-11-08T04:58:18.339Z,69.48
2016-11-08T04:59:28.314Z,69.86
2016-11-08T05:00:38.642Z,70.05
2016-11-08T05:01:48.919Z,69.57
2016-11-08T05:02:58.885Z,69.77
2016-11-08T05:04:09.168Z,69.77
2016-11-08T05:05:19.143Z,69.57
2016-11-08T05:06:29.414Z,69.57
2016-11-08T05:07:39.703Z,70.05
2016-11-08T05:08:49.374Z,69.67
2016-11-08T05:09:59.652Z,69.57
2016-11-08T05:11:09.627Z,69.57
2016-11-08T05:12:19.590Z,69.77
2016-11-08T05:13:29.895Z,69.67
2016-11-08T05:14:39.902Z,69.77
2016-11-08T05:15:50.185Z,69.86
2016-11-08T05:16:59.847Z,69.77
2016-11-08T05:18:10.133Z,69.77
2016-11-08T05:19:20.116Z,69.96
2016-11-08T05:20:30.096Z,69.96
2016-11-08T05:21:40.368Z,69.57
2016-11-08T05:22:50.379Z,69.57
2016-11-08T05:24:00.685Z,69.86
2016-11-08T05:25:10.663Z,70.15
2016-11-08T05:26:20.945Z,70.15
2016-11-08T05:27:30.923Z,70.05
2016-11-08T05:28:41.219Z,69.96
2016-11-08T05:29:51.498Z,70.15
2016-11-08T05:31:01.791Z,69.96
2016-11-08T05:32:12.077Z,69.86
2016-11-08T05:33:22.379Z,69.86
2016-11-08T05:34:32.347Z,69.96
2016-11-08T05:35:42.627Z,70.62
2016-11-08T05:36:52.595Z,70.43
2016-11-08T05:38:02.895Z,70.34
2016-11-08T05:39:13.179Z,70.34
2016-11-08T05:40:22.839Z,70.34
2016-11-08T05:41:32.516Z,70.34
2016-11-08T05:42:42.853Z,70.24
2016-11-08T05:43:52.226Z,70.34
2016-11-08T05:45:02.196Z,70.53
2016-11-08T05:46:12.182Z,70.53
2016-11-08T05:47:22.468Z,70.43
2016-11-08T05:48:32.451Z,70.24
2016-11-08T05:49:42.112Z,70.24
2016-11-08T05:50:52.390Z,70.05
2016-11-08T05:52:01.751Z,70.43
2016-11-08T05:53:12.031Z,70.34
2016-11-08T05:54:22.015Z,70.34
2016-11-08T05:55:31.992Z,70.15
2016-11-08T05:56:41.658Z,70.28
2016-11-08T05:57:51.944Z,70.34
2016-11-08T05:59:01.611Z,70.56
2016-11-08T06:00:11.918Z,70.47
2016-11-08T06:01:21.886Z,70.65
2016-11-08T06:02:31.866Z,70.65
2016-11-08T06:03:42.144Z,69.9
2016-11-08T06:04:51.800Z,69.8
2016-11-08T06:06:01.778Z,69.9
2016-11-08T06:07:11.758Z,69.52
2016-11-08T06:08:21.725Z,69.71
2016-11-08T06:09:31.992Z,70.28
2016-11-08T06:10:42.293Z,70.56
2016-11-08T06:11:52.579Z,70.56
2016-11-08T06:13:01.975Z,70.34
2016-11-08T06:14:11.982Z,70.56
2016-11-08T06:15:22.254Z,70.53
2016-11-08T06:16:32.226Z,69.9
2016-11-08T06:17:42.501Z,70.09
2016-11-08T06:18:52.483Z,69.99
2016-11-08T06:20:02.161Z,69.9
2016-11-08T06:21:11.511Z,69.8
2016-11-08T06:22:21.784Z,69.71
2016-11-08T06:23:31.756Z,69.9
2016-11-08T06:24:42.084Z,70.09
2016-11-08T06:25:52.356Z,70.18
2016-11-08T06:27:02.681Z,70.18
2016-11-08T06:28:12.966Z,69.8
2016-11-08T06:29:23.233Z,69.9
2016-11-08T06:30:33.216Z,69.8
2016-11-08T06:31:43.518Z,69.71
2016-11-08T06:32:53.839Z,69.8
2016-11-08T06:34:03.512Z,69.8
2016-11-08T06:35:13.831Z,69.9
2016-11-08T06:36:24.113Z,69.9
2016-11-08T06:37:34.400Z,69.99
2016-11-08T06:38:44.666Z,70.09
2016-11-08T06:39:54.648Z,69.71
2016-11-08T06:41:04.666Z,69.71
2016-11-08T06:42:14.652Z,70.18
2016-11-08T06:43:24.943Z,69.8
2016-11-08T06:44:35.243Z,69.8
2016-11-08T06:45:45.521Z,69.71
2016-11-08T06:46:55.804Z,69.61
2016-11-08T06:48:06.085Z,69.8
2016-11-08T06:49:16.057Z,69.86
2016-11-08T06:50:25.743Z,70.05
2016-11-08T06:51:36.021Z,69.86
2016-11-08T06:52:46.294Z,69.86
2016-11-08T06:53:56.559Z,70.15
2016-11-08T06:55:06.205Z,70.15
2016-11-08T06:56:16.159Z,69.57
2016-11-08T06:57:26.425Z,69.86
2016-11-08T06:58:36.696Z,70.09
2016-11-08T06:59:46.653Z,69.8
2016-11-08T07:00:56.929Z,70.09
2016-11-08T07:02:07.201Z,69.33
2016-11-08T07:03:17.471Z,69.04
2016-11-08T07:04:27.429Z,69.04
2016-11-08T07:05:37.392Z,69.33
2016-11-08T07:06:47.363Z,69.33
2016-11-08T07:07:57.021Z,69.71
2016-11-08T07:09:06.977Z,69.42
2016-11-08T07:10:17.273Z,69.42
2016-11-08T07:11:27.234Z,69.52
2016-11-08T07:12:37.502Z,69.33
2016-11-08T07:13:47.192Z,69.23
2016-11-08T07:14:57.464Z,69.17
2016-11-08T07:16:07.440Z,69.55
2016-11-08T07:17:17.414Z,69.55
2016-11-08T07:18:27.074Z,69.17
2016-11-08T07:19:37.337Z,69.65
2016-11-08T07:20:47.337Z,69.65
2016-11-08T07:21:57.613Z,69.46
2016-11-08T07:23:07.564Z,69.27
2016-11-08T07:24:17.832Z,69.36
2016-11-08T07:25:28.109Z,69.55
2016-11-08T07:26:38.076Z,69.65
2016-11-08T07:27:48.253Z,69.27
2016-11-08T07:28:57.921Z,69.08
2016-11-08T07:30:07.880Z,69.17
2016-11-08T07:31:17.871Z,69.36
2016-11-08T07:32:27.835Z,69.55
2016-11-08T07:33:38.103Z,69.46
2016-11-08T07:34:48.383Z,69.68
2016-11-08T07:35:58.666Z,69.4
2016-11-08T07:37:08.651Z,69.3
2016-11-08T07:38:18.963Z,69.21
2016-11-08T07:39:29.224Z,69.59
2016-11-08T07:40:39.492Z,69.3
2016-11-08T07:41:49.755Z,69.4
2016-11-08T07:42:59.405Z,69.4
2016-11-08T07:44:09.431Z,69.3
2016-11-08T07:45:19.704Z,69.49
2016-11-08T07:46:29.660Z,69.21
2016-11-08T07:47:39.652Z,69.4
2016-11-08T07:48:49.965Z,69.11
2016-11-08T07:49:59.980Z,68.92
2016-11-08T07:51:10.248Z,68.67
2016-11-08T07:52:20.198Z,68.48
2016-11-08T07:53:30.496Z,68.86
2016-11-08T07:54:40.751Z,68.58
2016-11-08T07:55:50.713Z,68.39
2016-11-08T07:57:00.670Z,68.77
2016-11-08T07:58:10.651Z,69.43
2016-11-08T07:59:20.627Z,69.05
2016-11-08T08:00:30.599Z,69.15
2016-11-08T08:01:40.562Z,68.86
2016-11-08T08:02:50.551Z,69.05
2016-11-08T08:04:00.547Z,69.05
2016-11-08T08:05:10.822Z,69.15
2016-11-08T08:06:21.089Z,69.24
2016-11-08T08:07:31.364Z,69.43
2016-11-08T08:08:41.646Z,69.05
2016-11-08T08:09:51.933Z,69.18
2016-11-08T08:11:02.201Z,68.9
2016-11-08T08:12:11.928Z,69.27
2016-11-08T08:13:21.645Z,68.99
2016-11-08T08:14:31.641Z,68.99
2016-11-08T08:15:41.927Z,69.18
2016-11-08T08:16:52.194Z,68.9
2016-11-08T08:18:02.469Z,69.37
2016-11-08T08:19:12.462Z,69.09
2016-11-08T08:20:22.114Z,69.09
2016-11-08T08:21:32.401Z,69.09
2016-11-08T08:22:42.062Z,69.09
2016-11-08T08:23:52.328Z,68.9
2016-11-08T08:25:02.621Z,68.99
2016-11-08T08:26:12.606Z,68.9
2016-11-08T08:27:22.870Z,69.31
2016-11-08T08:28:32.820Z,69.09
2016-11-08T08:29:43.093Z,69.02
2016-11-08T08:30:52.905Z,69.02
2016-11-08T08:32:02.889Z,69.12
2016-11-08T08:33:13.151Z,69.31
2016-11-08T08:34:23.411Z,69.12
2016-11-08T08:35:33.364Z,69.31
2016-11-08T08:36:43.031Z,69.88
2016-11-08T08:37:52.680Z,69.6
2016-11-08T08:39:02.644Z,69.69
2016-11-08T08:40:12.296Z,69.69
2016-11-08T08:41:22.263Z,69.69
2016-11-08T08:42:32.536Z,69.88
2016-11-08T08:43:42.801Z,69.5
2016-11-08T08:44:52.758Z,69.5
2016-11-08T08:46:03.034Z,69.31
2016-11-08T08:47:13.388Z,69.5
2016-11-08T08:48:23.578Z,69.31
2016-11-08T08:49:33.843Z,69.31
2016-11-08T08:50:43.179Z,69.21
2016-11-08T08:51:52.521Z,69.69
2016-11-08T08:53:02.483Z,69.31
2016-11-08T08:54:12.130Z,69.31
2016-11-08T08:55:22.401Z,69.54
2016-11-08T08:56:32.354Z,69.73
2016-11-08T08:57:42.300Z,69.82
2016-11-08T08:58:52.272Z,69.25
2016-11-08T09:00:02.548Z,69.54
2016-11-08T09:01:12.515Z,69.15
2016-11-08T09:02:22.812Z,69.35
2016-11-08T09:03:33.103Z,69.25
2016-11-08T09:04:43.110Z,69.06
2016-11-08T09:05:53.386Z,68.96
2016-11-08T09:07:03.102Z,69.35
2016-11-08T09:08:12.448Z,69
2016-11-08T09:09:22.408Z,69.29
2016-11-08T09:10:32.694Z,69.1
2016-11-08T09:11:42.969Z,68.43
2016-11-08T09:12:53.236Z,69.19
2016-11-08T09:14:03.504Z,68.71
2016-11-08T09:15:13.817Z,68.62
2016-11-08T09:16:24.081Z,68.9
2016-11-08T09:17:34.360Z,69.1
2016-11-08T09:18:44.348Z,68.94
2016-11-08T09:19:54.614Z,68.81
2016-11-08T09:21:04.637Z,68.94
2016-11-08T09:22:14.918Z,69.13
2016-11-08T09:23:25.203Z,68.65
2016-11-08T09:24:35.165Z,68.94
2016-11-08T09:25:45.151Z,68.75
2016-11-08T09:26:54.505Z,68.65
2016-11-08T09:28:04.509Z,68.46
2016-11-08T09:29:14.813Z,68.94
2016-11-08T09:30:24.471Z,68.65
2016-11-08T09:31:34.125Z,68.65
2016-11-08T09:32:44.414Z,69.04
2016-11-08T09:33:54.375Z,68.84
2016-11-08T09:35:04.646Z,68.3
2016-11-08T09:36:15.083Z,67.93
2016-11-08T09:37:25.044Z,68.4
2016-11-08T09:38:35.326Z,68.12
2016-11-08T09:39:45.341Z,68.12
2016-11-08T09:40:55.625Z,68.3
2016-11-08T09:42:05.608Z,68.02
2016-11-08T09:43:15.869Z,68.78
2016-11-08T09:44:25.830Z,69.17
2016-11-08T09:45:36.123Z,69.17
2016-11-08T09:46:46.093Z,69.26
2016-11-08T09:47:56.104Z,69.64
2016-11-08T09:49:06.067Z,69.54
2016-11-08T09:50:16.018Z,69.51
2016-11-08T09:51:25.668Z,69.42
2016-11-08T09:52:35.322Z,69.6
2016-11-08T09:53:45.578Z,69.7
2016-11-08T09:54:55.854Z,69.42
2016-11-08T09:56:06.146Z,69.79
2016-11-08T09:57:16.409Z,69.6
2016-11-08T09:58:26.373Z,69.51
2016-11-08T09:59:36.036Z,69.32
2016-11-08T10:00:46.304Z,69.42
2016-11-08T10:01:55.977Z,69.51
2016-11-08T10:03:05.940Z,69.6
2016-11-08T10:04:16.203Z,69.32
2016-11-08T10:05:26.474Z,69.42
2016-11-08T10:06:36.460Z,69.51
2016-11-08T10:07:46.428Z,69.51
2016-11-08T10:08:56.704Z,69.6
2016-11-08T10:10:06.671Z,69.6
2016-11-08T10:11:16.936Z,69.42
2016-11-08T10:12:26.909Z,69.51
2016-11-08T10:13:37.192Z,69.6
2016-11-08T10:14:47.186Z,69.42
2016-11-08T10:15:57.462Z,69.23
2016-11-08T10:17:07.445Z,69.42
2016-11-08T10:18:17.406Z,69.7
2016-11-08T10:19:27.684Z,69.6
2016-11-08T10:20:37.959Z,69.6
2016-11-08T10:21:48.260Z,69.89
2016-11-08T10:22:58.547Z,69.51
2016-11-08T10:24:08.833Z,69.79
2016-11-08T10:25:19.125Z,69.7
2016-11-08T10:26:29.408Z,69.79
2016-11-08T10:27:39.714Z,69.89
2016-11-08T10:28:49.384Z,69.32
2016-11-08T10:29:59.052Z,69.42
2016-11-08T10:31:09.025Z,69.6
2016-11-08T10:32:19.302Z,69.42
2016-11-08T10:33:29.607Z,69.51
2016-11-08T10:34:39.923Z,69.42
2016-11-08T10:35:49.624Z,69.42
2016-11-08T10:36:59.607Z,69.6
2016-11-08T10:38:09.893Z,69.51
2016-11-08T10:39:19.876Z,69.7
2016-11-08T10:40:29.855Z,70.27
2016-11-08T10:41:40.167Z,69.89
2016-11-08T10:42:50.148Z,69.95
2016-11-08T10:44:00.106Z,70.43
2016-11-08T10:45:10.390Z,69.95
2016-11-08T10:46:20.688Z,70.05
2016-11-08T10:47:30.987Z,70.24
2016-11-08T10:48:41.315Z,70.05
2016-11-08T10:49:51.632Z,70.05
2016-11-08T10:51:01.663Z,70.33
2016-11-08T10:52:12.026Z,70.05
2016-11-08T10:53:22.366Z,69.95
2016-11-08T10:54:32.675Z,69.57
2016-11-08T10:55:42.714Z,69.48
2016-11-08T10:56:52.709Z,69.48
2016-11-08T10:58:03.005Z,69.38
2016-11-08T10:59:13.338Z,69.57
2016-11-08T11:00:23.683Z,69.95
2016-11-08T11:01:33.371Z,69.7
2016-11-08T11:02:43.701Z,69.79
2016-11-08T11:03:53.700Z,69.51
2016-11-08T11:05:03.995Z,69.32
2016-11-08T11:06:14.277Z,69.42
2016-11-08T11:07:24.614Z,69.51
2016-11-08T11:08:34.911Z,69.6
2016-11-08T11:09:45.223Z,69.51
2016-11-08T11:10:55.225Z,69.42
2016-11-08T11:12:05.212Z,69.42
2016-11-08T11:13:15.500Z,69.6
2016-11-08T11:14:25.786Z,69.42
2016-11-08T11:15:35.812Z,69.45
2016-11-08T11:16:46.089Z,69.32
2016-11-08T11:17:56.061Z,69.79
2016-11-08T11:19:06.339Z,69.64
2016-11-08T11:20:16.624Z,69.45
2016-11-08T11:21:26.936Z,69.45
2016-11-08T11:22:36.909Z,69.17
2016-11-08T11:23:47.187Z,69.35
2016-11-08T11:24:57.192Z,69.17
2016-11-08T11:26:07.160Z,69.07
2016-11-08T11:27:17.443Z,69.17
2016-11-08T11:28:27.728Z,69.17
2016-11-08T11:29:37.694Z,68.78
2016-11-08T11:30:47.696Z,68.88
2016-11-08T11:31:57.358Z,69.1
2016-11-08T11:33:06.717Z,69.1
2016-11-08T11:34:17.003Z,68.91
2016-11-08T11:35:26.983Z,68.72
2016-11-08T11:36:36.975Z,68.91
2016-11-08T11:37:46.935Z,68.91
2016-11-08T11:38:56.914Z,69.1
2016-11-08T11:40:06.890Z,68.91
2016-11-08T11:41:16.568Z,68.72
2016-11-08T11:42:26.536Z,69.1
2016-11-08T11:43:36.836Z,68.91
2016-11-08T11:44:47.119Z,68.63
2016-11-08T11:45:57.424Z,69.2
2016-11-08T11:47:07.412Z,68.72
2016-11-08T11:48:17.408Z,68.91
2016-11-08T11:49:27.096Z,68.91
2016-11-08T11:50:37.109Z,69.2
2016-11-08T11:51:47.141Z,69.39
2016-11-08T11:52:57.485Z,69.45
2016-11-08T11:54:07.448Z,69.83
2016-11-08T11:55:17.445Z,69.83
2016-11-08T11:56:27.725Z,69.64
2016-11-08T11:57:37.719Z,69.83
2016-11-08T11:58:47.730Z,69.54
2016-11-08T11:59:57.698Z,69.35
2016-11-08T12:01:08.014Z,69.45
2016-11-08T12:02:18.292Z,69.07
2016-11-08T12:03:28.269Z,69.01
2016-11-08T12:04:38.570Z,68.91
2016-11-08T12:05:48.847Z,69.01
2016-11-08T12:06:59.123Z,69.29
2016-11-08T12:08:09.406Z,68.82
2016-11-08T12:09:19.383Z,68.53
2016-11-08T12:10:29.363Z,68.47
2016-11-08T12:11:39.321Z,68.57
2016-11-08T12:12:49.315Z,68.18
2016-11-08T12:13:59.326Z,68.09
2016-11-08T12:15:09.303Z,68.18
2016-11-08T12:16:19.285Z,68.28
2016-11-08T12:17:29.581Z,68.38
2016-11-08T12:18:39.901Z,68.47
2016-11-08T12:19:50.195Z,68.09
2016-11-08T12:21:00.496Z,68.6
2016-11-08T12:22:10.488Z,69.23
2016-11-08T12:23:20.765Z,68.95
2016-11-08T12:24:31.066Z,69.23
2016-11-08T12:25:41.354Z,69.52
2016-11-08T12:26:51.636Z,69.33
2016-11-08T12:28:01.628Z,69.23
2016-11-08T12:29:11.600Z,69.23
2016-11-08T12:30:21.581Z,69.43
2016-11-08T12:31:31.863Z,69.33
2016-11-08T12:32:42.151Z,69.23
2016-11-08T12:33:51.801Z,69.33
2016-11-08T12:35:01.472Z,69.14
2016-11-08T12:36:11.460Z,68.85
2016-11-08T12:37:21.896Z,69.04
2016-11-08T12:38:32.183Z,68.76
2016-11-08T12:39:42.166Z,69.23
2016-11-08T12:40:52.461Z,69.23
2016-11-08T12:42:02.489Z,69.43
2016-11-08T12:43:12.475Z,69.9
2016-11-08T12:44:22.763Z,69.62
2016-11-08T12:45:33.039Z,69.71
2016-11-08T12:46:43.332Z,69.52
2016-11-08T12:47:53.677Z,69.9
2016-11-08T12:49:03.988Z,70
2016-11-08T12:50:13.957Z,69.14
2016-11-08T12:51:24.248Z,69.23
2016-11-08T12:52:34.230Z,69.33
2016-11-08T12:53:44.569Z,69.14
2016-11-08T12:54:54.544Z,68.95
2016-11-08T12:56:04.834Z,68.6
2016-11-08T12:57:15.167Z,68.12
2016-11-08T12:58:25.454Z,68.22
2016-11-08T12:59:35.470Z,69.08
2016-11-08T13:00:45.753Z,69.74
2016-11-08T13:01:56.039Z,69.81
2016-11-08T13:03:06.317Z,69.62
2016-11-08T13:04:16.298Z,70.57
2016-11-08T13:05:26.263Z,70.25
2016-11-08T13:06:36.592Z,70.19
2016-11-08T13:07:46.897Z,70.44
2016-11-08T13:08:56.880Z,70.06
2016-11-08T13:10:07.198Z,70.15
2016-11-08T13:11:17.484Z,70.15
2016-11-08T13:12:27.773Z,70.06
2016-11-08T13:13:37.741Z,69.87
2016-11-08T13:14:47.394Z,70.53
2016-11-08T13:15:57.664Z,70.53
2016-11-08T13:17:07.957Z,70.15
2016-11-08T13:18:18.248Z,70.34
2016-11-08T13:19:28.535Z,70.25
2016-11-08T13:20:38.818Z,70.34
2016-11-08T13:21:49.114Z,70.06
2016-11-08T13:22:59.100Z,70.15
2016-11-08T13:24:09.378Z,69.77
2016-11-08T13:25:19.050Z,69.87
2016-11-08T13:26:29.336Z,69.68
2016-11-08T13:27:39.352Z,69.58
2016-11-08T13:28:49.338Z,69.58
2016-11-08T13:29:59.320Z,69.39
2016-11-08T13:31:09.616Z,69.68
2016-11-08T13:32:19.908Z,69.68
2016-11-08T13:33:29.579Z,69.48
2016-11-08T13:34:39.885Z,69.68
2016-11-08T13:35:50.172Z,69.96
2016-11-08T13:37:00.460Z,70.06
2016-11-08T13:38:10.435Z,70.53
2016-11-08T13:39:20.714Z,70.44
2016-11-08T13:40:30.693Z,70.53
2016-11-08T13:41:40.097Z,70.53
2016-11-08T13:42:50.084Z,70.15
2016-11-08T13:44:00.369Z,70.15
2016-11-08T13:45:10.356Z,70.53
2016-11-08T13:46:20.328Z,70.25
2016-11-08T13:47:30.629Z,70.15
2016-11-08T13:48:40.913Z,70.4
2016-11-08T13:49:51.198Z,70.02
2016-11-08T13:51:01.501Z,70.15
2016-11-08T13:52:11.486Z,69.87
2016-11-08T13:53:21.913Z,69.96
2016-11-08T13:54:30.969Z,70.02
2016-11-08T13:55:41.271Z,70.34
2016-11-08T13:56:51.251Z,70.02
2016-11-08T13:58:00.917Z,69.93
2016-11-08T13:59:09.968Z,70.25
2016-11-08T14:00:19.968Z,70.21
2016-11-08T14:01:29.984Z,70.88
2016-11-08T14:02:40.277Z,70.88
2016-11-08T14:03:50.564Z,70.88
2016-11-08T14:05:00.890Z,70.59
2016-11-08T14:06:11.187Z,70.4
2016-11-08T14:07:21.179Z,70.78
2016-11-08T14:08:31.455Z,70.4
2016-11-08T14:09:41.131Z,70.21
2016-11-08T14:10:51.424Z,69.83
2016-11-08T14:12:01.423Z,70.12
2016-11-08T14:13:11.402Z,70.21
2016-11-08T14:14:21.393Z,70.4
2016-11-08T14:15:31.678Z,70.02
2016-11-08T14:16:41.029Z,70.25
2016-11-08T14:17:51.349Z,70.25
2016-11-08T14:19:01.029Z,69.96
2016-11-08T14:20:11.317Z,70.15
2016-11-08T14:21:21.609Z,69.96
2016-11-08T14:22:31.275Z,69.83
2016-11-08T14:23:41.554Z,70.21
2016-11-08T14:24:51.543Z,70.69
2016-11-08T14:26:01.555Z,70.88
2016-11-08T14:27:11.847Z,71.36
2016-11-08T14:28:22.144Z,70.97
2016-11-08T14:29:32.135Z,71.13
2016-11-08T14:30:42.449Z,71.03
2016-11-08T14:31:52.421Z,71.03
2016-11-08T14:33:02.710Z,71.22
2016-11-08T14:34:13.007Z,71.13
2016-11-08T14:35:23.310Z,71.7
2016-11-08T14:36:33.294Z,71.89
2016-11-08T14:37:43.583Z,71.89
2016-11-08T14:38:53.879Z,71.89
2016-11-08T14:40:03.931Z,71.32
2016-11-08T14:41:14.225Z,70.94
2016-11-08T14:42:24.208Z,70.94
2016-11-08T14:43:33.871Z,70.9
2016-11-08T14:44:43.543Z,70.94
2016-11-08T14:45:53.820Z,70.9
2016-11-08T14:47:03.791Z,71.19
2016-11-08T14:48:13.762Z,71.19
2016-11-08T14:49:23.765Z,71.28
2016-11-08T14:50:34.053Z,71.86
2016-11-08T14:51:44.043Z,71.67
2016-11-08T14:52:54.345Z,71.76
2016-11-08T14:54:04.316Z,71.67
2016-11-08T14:55:14.307Z,71.38
2016-11-08T14:56:23.991Z,71.57
2016-11-08T14:57:34.265Z,71.67
2016-11-08T14:58:44.558Z,71.57
2016-11-08T14:59:54.553Z,71.47
2016-11-08T15:01:04.610Z,71.57
2016-11-08T15:02:14.909Z,71.53
2016-11-08T15:03:25.184Z,71.28
2016-11-08T15:04:34.880Z,71.38
2016-11-08T15:05:44.879Z,71.34
2016-11-08T15:06:55.154Z,71.44
2016-11-08T15:08:05.495Z,71.82
2016-11-08T15:09:15.828Z,71.82
2016-11-08T15:10:25.823Z,72.01
2016-11-08T15:11:35.830Z,71.82
2016-11-08T15:12:46.105Z,72.11
2016-11-08T15:13:56.394Z,71.82
2016-11-08T15:15:06.072Z,72.01
2016-11-08T15:16:16.368Z,72.01
2016-11-08T15:17:26.685Z,71.82
2016-11-08T15:18:36.981Z,72.07
2016-11-08T15:19:47.352Z,71.82
2016-11-08T15:20:57.009Z,72.07
2016-11-08T15:22:07.065Z,71.78
2016-11-08T15:23:17.053Z,72.07
2016-11-08T15:24:26.727Z,72.07
2016-11-08T15:25:36.707Z,71.88
2016-11-08T15:26:46.707Z,71.78
2016-11-08T15:27:57.009Z,71.97
2016-11-08T15:29:06.685Z,71.97
2016-11-08T15:30:16.661Z,71.78
2016-11-08T15:31:26.648Z,71.69
2016-11-08T15:32:36.346Z,71.88
2016-11-08T15:33:46.678Z,71.78
2016-11-08T15:34:56.995Z,71.78
2016-11-08T15:36:07.003Z,71.22